Aviation Digital Data Service (ADDS)

Output produced by METARs form (0433 UTC 26 June 2019)
found at http://www.aviationweather.gov/metar/data/
 
METAR text: WMKJ 260400Z VRB09KT 9999 SCT018 BKN280 28/26 Q1012
Conditions at: WMKJ (JOHORE BHARU/SEN, MY) observed 0400 UTC 26 June 2019
Temperature: 28.0°C (82°F)
Dewpoint: 26.0°C (79°F) [RH = 89%]
Pressure (altimeter): 29.88 inches Hg (1012.0 mb)
Winds: variable direction winds at 10 MPH (9 knots; 4.6 m/s)
Visibility: 6 or more miles (10+ km)
Ceiling: 28000 feet AGL
Clouds: scattered clouds at 1800 feet AGL
broken clouds at 28000 feet AGL
Weather: no significant weather observed at this time

METAR text: WMKJ 260300Z 28008KT 230V010 8000 -SHRA FEW010 FEW016CB SCT018 BKN280 26/25 Q1012
Conditions at: WMKJ (JOHORE BHARU/SEN, MY) observed 0300 UTC 26 June 2019
Temperature: 26.0°C (79°F)
Dewpoint: 25.0°C (77°F) [RH = 94%]
Pressure (altimeter): 29.88 inches Hg (1012.0 mb)
Winds: from the W (280 degrees) at 9 MPH (8 knots; 4.1 m/s)
Visibility: 5 miles ( 8 km)
Ceiling: 28000 feet AGL
Clouds: few clouds at 1000 feet AGL
few clouds at 1600 feet AGL
scattered clouds at 1800 feet AGL
broken clouds at 28000 feet AGL
Weather: -SHRA  (light rain showers)

METAR text: WMKJ 260200Z VRB03KT 8000 FEW017CB BKN280 30/27 Q1012
Conditions at: WMKJ (JOHORE BHARU/SEN, MY) observed 0200 UTC 26 June 2019
Temperature: 30.0°C (86°F)
Dewpoint: 27.0°C (81°F) [RH = 84%]
Pressure (altimeter): 29.88 inches Hg (1012.0 mb)
Winds: variable direction winds at 3 MPH (3 knots; 1.5 m/s)
Visibility: 5 miles ( 8 km)
Ceiling: 28000 feet AGL
Clouds: few clouds at 1700 feet AGL
broken clouds at 28000 feet AGL
Weather: no significant weather observed at this time

METAR text: WMKJ 260100Z VRB02KT 6000 FEW018 SCT140 BKN280 28/26 Q1012
Conditions at: WMKJ (JOHORE BHARU/SEN, MY) observed 0100 UTC 26 June 2019
Temperature: 28.0°C (82°F)
Dewpoint: 26.0°C (79°F) [RH = 89%]
Pressure (altimeter): 29.88 inches Hg (1012.0 mb)
Winds: variable direction winds at 2 MPH (2 knots; 1.0 m/s)
Visibility: 4 miles ( 6 km)
Ceiling: 28000 feet AGL
Clouds: few clouds at 1800 feet AGL
scattered clouds at 14000 feet AGL
broken clouds at 28000 feet AGL
Weather: no significant weather observed at this time

METAR text: WMKJ 260000Z 34003KT 280V070 5000 BR FEW010 SCT130 BKN280 26/25 Q1011
Conditions at: WMKJ (JOHORE BHARU/SEN, MY) observed 0000 UTC 26 June 2019
Temperature: 26.0°C (79°F)
Dewpoint: 25.0°C (77°F) [RH = 94%]
Pressure (altimeter): 29.85 inches Hg (1011.0 mb)
Winds: from the NNW (340 degrees) at 3 MPH (3 knots; 1.5 m/s)
Visibility: 3 miles ( 5 km)
Ceiling: 28000 feet AGL
Clouds: few clouds at 1000 feet AGL
scattered clouds at 13000 feet AGL
broken clouds at 28000 feet AGL
Weather: BR  (mist)

METAR text: WMKJ 252300Z 00000KT 5000 FEW006 BKN280 25/25 Q1010
Conditions at: WMKJ (JOHORE BHARU/SEN, MY) observed 2300 UTC 25 June 2019
Temperature: 25.0°C (77°F)
Dewpoint: 25.0°C (77°F) [RH = 100%]
Pressure (altimeter): 29.82 inches Hg (1010.0 mb)
Winds: calm
Visibility: 3 miles ( 5 km)
Ceiling: 28000 feet AGL
Clouds: few clouds at 600 feet AGL
broken clouds at 28000 feet AGL
Weather: no significant weather observed at this time

METAR text: WMKJ 252200Z VRB01KT 6000 FEW008 BKN300 25/25 Q1010
Conditions at: WMKJ (JOHORE BHARU/SEN, MY) observed 2200 UTC 25 June 2019
Temperature: 25.0°C (77°F)
Dewpoint: 25.0°C (77°F) [RH = 100%]
Pressure (altimeter): 29.82 inches Hg (1010.0 mb)
Winds: variable direction winds at 1 MPH (1 knots; 0.5 m/s)
Visibility: 4 miles ( 6 km)
Ceiling: 30000 feet AGL
Clouds: few clouds at 800 feet AGL
broken clouds at 30000 feet AGL
Weather: no significant weather observed at this time

METAR text: WMKJ 252100Z 00000KT 8000 FEW010 BKN300 26/25 Q1009
Conditions at: WMKJ (JOHORE BHARU/SEN, MY) observed 2100 UTC 25 June 2019
Temperature: 26.0°C (79°F)
Dewpoint: 25.0°C (77°F) [RH = 94%]
Pressure (altimeter): 29.79 inches Hg (1009.0 mb)
Winds: calm
Visibility: 5 miles ( 8 km)
Ceiling: 30000 feet AGL
Clouds: few clouds at 1000 feet AGL
broken clouds at 30000 feet AGL
Weather: no significant weather observed at this time

METAR text: WMKJ 252000Z VRB01KT 8000 FEW010 BKN300 26/25 Q1010
Conditions at: WMKJ (JOHORE BHARU/SEN, MY) observed 2000 UTC 25 June 2019
Temperature: 26.0°C (79°F)
Dewpoint: 25.0°C (77°F) [RH = 94%]
Pressure (altimeter): 29.82 inches Hg (1010.0 mb)
Winds: variable direction winds at 1 MPH (1 knots; 0.5 m/s)
Visibility: 5 miles ( 8 km)
Ceiling: 30000 feet AGL
Clouds: few clouds at 1000 feet AGL
broken clouds at 30000 feet AGL
Weather: no significant weather observed at this time

METAR text: WMKJ 251900Z 00000KT 9999 FEW023 BKN300 26/25 Q1010
Conditions at: WMKJ (JOHORE BHARU/SEN, MY) observed 1900 UTC 25 June 2019
Temperature: 26.0°C (79°F)
Dewpoint: 25.0°C (77°F) [RH = 94%]
Pressure (altimeter): 29.82 inches Hg (1010.0 mb)
Winds: calm
Visibility: 6 or more miles (10+ km)
Ceiling: 30000 feet AGL
Clouds: few clouds at 2300 feet AGL
broken clouds at 30000 feet AGL
Weather: no significant weather observed at this time

METAR text: WMKJ 251800Z VRB02KT 9999 FEW023 BKN300 27/25 Q1010
Conditions at: WMKJ (JOHORE BHARU/SEN, MY) observed 1800 UTC 25 June 2019
Temperature: 27.0°C (81°F)
Dewpoint: 25.0°C (77°F) [RH = 89%]
Pressure (altimeter): 29.82 inches Hg (1010.0 mb)
Winds: variable direction winds at 2 MPH (2 knots; 1.0 m/s)
Visibility: 6 or more miles (10+ km)
Ceiling: 30000 feet AGL
Clouds: few clouds at 2300 feet AGL
broken clouds at 30000 feet AGL
Weather: no significant weather observed at this time

METAR text: WMKJ 251700Z VRB02KT 9999 FEW023 BKN300 27/26 Q1011
Conditions at: WMKJ (JOHORE BHARU/SEN, MY) observed 1700 UTC 25 June 2019
Temperature: 27.0°C (81°F)
Dewpoint: 26.0°C (79°F) [RH = 94%]
Pressure (altimeter): 29.85 inches Hg (1011.0 mb)
Winds: variable direction winds at 2 MPH (2 knots; 1.0 m/s)
Visibility: 6 or more miles (10+ km)
Ceiling: 30000 feet AGL
Clouds: few clouds at 2300 feet AGL
broken clouds at 30000 feet AGL
Weather: no significant weather observed at this time

METAR text: WMKJ 251600Z VRB01KT 9999 FEW023 BKN300 28/26 Q1011
Conditions at: WMKJ (JOHORE BHARU/SEN, MY) observed 1600 UTC 25 June 2019
Temperature: 28.0°C (82°F)
Dewpoint: 26.0°C (79°F) [RH = 89%]
Pressure (altimeter): 29.85 inches Hg (1011.0 mb)
Winds: variable direction winds at 1 MPH (1 knots; 0.5 m/s)
Visibility: 6 or more miles (10+ km)
Ceiling: 30000 feet AGL
Clouds: few clouds at 2300 feet AGL
broken clouds at 30000 feet AGL
Weather: no significant weather observed at this time

METAR text: WMKJ 251500Z 15004KT 100V210 9999 FEW023 BKN300 29/26 Q1011
Conditions at: WMKJ (JOHORE BHARU/SEN, MY) observed 1500 UTC 25 June 2019
Temperature: 29.0°C (84°F)
Dewpoint: 26.0°C (79°F) [RH = 84%]
Pressure (altimeter): 29.85 inches Hg (1011.0 mb)
Winds: from the SSE (150 degrees) at 5 MPH (4 knots; 2.1 m/s)
Visibility: 6 or more miles (10+ km)
Ceiling: 30000 feet AGL
Clouds: few clouds at 2300 feet AGL
broken clouds at 30000 feet AGL
Weather: no significant weather observed at this time

METAR text: WMKJ 251400Z 13004KT 060V190 9999 FEW022 SCT130 BKN280 29/26 Q1011
Conditions at: WMKJ (JOHORE BHARU/SEN, MY) observed 1400 UTC 25 June 2019
Temperature: 29.0°C (84°F)
Dewpoint: 26.0°C (79°F) [RH = 84%]
Pressure (altimeter): 29.85 inches Hg (1011.0 mb)
Winds: from the SE (130 degrees) at 5 MPH (4 knots; 2.1 m/s)
Visibility: 6 or more miles (10+ km)
Ceiling: 28000 feet AGL
Clouds: few clouds at 2200 feet AGL
scattered clouds at 13000 feet AGL
broken clouds at 28000 feet AGL
Weather: no significant weather observed at this time

METAR text: WMKJ 251300Z 15003KT 070V240 9999 FEW022 SCT140 BKN280 29/26 Q1010
Conditions at: WMKJ (JOHORE BHARU/SEN, MY) observed 1300 UTC 25 June 2019
Temperature: 29.0°C (84°F)
Dewpoint: 26.0°C (79°F) [RH = 84%]
Pressure (altimeter): 29.82 inches Hg (1010.0 mb)
Winds: from the SSE (150 degrees) at 3 MPH (3 knots; 1.5 m/s)
Visibility: 6 or more miles (10+ km)
Ceiling: 28000 feet AGL
Clouds: few clouds at 2200 feet AGL
scattered clouds at 14000 feet AGL
broken clouds at 28000 feet AGL
Weather: no significant weather observed at this time

METAR text: WMKJ 251200Z 19003KT 140V240 9999 FEW020 SCT140 BKN280 30/26 Q1009
Conditions at: WMKJ (JOHORE BHARU/SEN, MY) observed 1200 UTC 25 June 2019
Temperature: 30.0°C (86°F)
Dewpoint: 26.0°C (79°F) [RH = 79%]
Pressure (altimeter): 29.79 inches Hg (1009.0 mb)
Winds: from the S (190 degrees) at 3 MPH (3 knots; 1.5 m/s)
Visibility: 6 or more miles (10+ km)
Ceiling: 28000 feet AGL
Clouds: few clouds at 2000 feet AGL
scattered clouds at 14000 feet AGL
broken clouds at 28000 feet AGL
Weather: no significant weather observed at this time

METAR text: WMKJ 251100Z 20004KT 120V250 9999 FEW020 SCT140 BKN280 30/26 Q1009
Conditions at: WMKJ (JOHORE BHARU/SEN, MY) observed 1100 UTC 25 June 2019
Temperature: 30.0°C (86°F)
Dewpoint: 26.0°C (79°F) [RH = 79%]
Pressure (altimeter): 29.79 inches Hg (1009.0 mb)
Winds: from the SSW (200 degrees) at 5 MPH (4 knots; 2.1 m/s)
Visibility: 6 or more miles (10+ km)
Ceiling: 28000 feet AGL
Clouds: few clouds at 2000 feet AGL
scattered clouds at 14000 feet AGL
broken clouds at 28000 feet AGL
Weather: no significant weather observed at this time

METAR text: WMKJ 251000Z 19006KT 150V240 9999 FEW018 SCT140 BKN280 32/27 Q1008
Conditions at: WMKJ (JOHORE BHARU/SEN, MY) observed 1000 UTC 25 June 2019
Temperature: 32.0°C (90°F)
Dewpoint: 27.0°C (81°F) [RH = 75%]
Pressure (altimeter): 29.76 inches Hg (1008.0 mb)
Winds: from the S (190 degrees) at 7 MPH (6 knots; 3.1 m/s)
Visibility: 6 or more miles (10+ km)
Ceiling: 28000 feet AGL
Clouds: few clouds at 1800 feet AGL
scattered clouds at 14000 feet AGL
broken clouds at 28000 feet AGL
Weather: no significant weather observed at this time

METAR text: WMKJ 250900Z 20006KT 140V240 9999 FEW017CB SCT018 BKN280 32/27 Q1008
Conditions at: WMKJ (JOHORE BHARU/SEN, MY) observed 0900 UTC 25 June 2019
Temperature: 32.0°C (90°F)
Dewpoint: 27.0°C (81°F) [RH = 75%]
Pressure (altimeter): 29.76 inches Hg (1008.0 mb)
Winds: from the SSW (200 degrees) at 7 MPH (6 knots; 3.1 m/s)
Visibility: 6 or more miles (10+ km)
Ceiling: 28000 feet AGL
Clouds: few clouds at 1700 feet AGL
scattered clouds at 1800 feet AGL
broken clouds at 28000 feet AGL
Weather: no significant weather observed at this time

METAR text: WMKJ 250800Z 19007KT 120V260 9999 SCT018 BKN280 33/27 Q1008
Conditions at: WMKJ (JOHORE BHARU/SEN, MY) observed 0800 UTC 25 June 2019
Temperature: 33.0°C (91°F)
Dewpoint: 27.0°C (81°F) [RH = 71%]
Pressure (altimeter): 29.76 inches Hg (1008.0 mb)
Winds: from the S (190 degrees) at 8 MPH (7 knots; 3.6 m/s)
Visibility: 6 or more miles (10+ km)
Ceiling: 28000 feet AGL
Clouds: scattered clouds at 1800 feet AGL
broken clouds at 28000 feet AGL
Weather: no significant weather observed at this time

METAR text: WMKJ 250700Z 20007KT 120V280 9999 SCT018 BKN280 33/27 Q1008
Conditions at: WMKJ (JOHORE BHARU/SEN, MY) observed 0700 UTC 25 June 2019
Temperature: 33.0°C (91°F)
Dewpoint: 27.0°C (81°F) [RH = 71%]
Pressure (altimeter): 29.76 inches Hg (1008.0 mb)
Winds: from the SSW (200 degrees) at 8 MPH (7 knots; 3.6 m/s)
Visibility: 6 or more miles (10+ km)
Ceiling: 28000 feet AGL
Clouds: scattered clouds at 1800 feet AGL
broken clouds at 28000 feet AGL
Weather: no significant weather observed at this time

METAR text: WMKJ 250600Z 21007KT 150V280 9999 SCT018 BKN280 32/26 Q1009
Conditions at: WMKJ (JOHORE BHARU/SEN, MY) observed 0600 UTC 25 June 2019
Temperature: 32.0°C (90°F)
Dewpoint: 26.0°C (79°F) [RH = 71%]
Pressure (altimeter): 29.79 inches Hg (1009.0 mb)
Winds: from the SSW (210 degrees) at 8 MPH (7 knots; 3.6 m/s)
Visibility: 6 or more miles (10+ km)
Ceiling: 28000 feet AGL
Clouds: scattered clouds at 1800 feet AGL
broken clouds at 28000 feet AGL
Weather: no significant weather observed at this time

METAR text: WMKJ 250500Z 19007KT 120V250 9999 FEW017CB SCT018 BKN280 33/27 Q1010
Conditions at: WMKJ (JOHORE BHARU/SEN, MY) observed 0500 UTC 25 June 2019
Temperature: 33.0°C (91°F)
Dewpoint: 27.0°C (81°F) [RH = 71%]
Pressure (altimeter): 29.82 inches Hg (1010.0 mb)
Winds: from the S (190 degrees) at 8 MPH (7 knots; 3.6 m/s)
Visibility: 6 or more miles (10+ km)
Ceiling: 28000 feet AGL
Clouds: few clouds at 1700 feet AGL
scattered clouds at 1800 feet AGL
broken clouds at 28000 feet AGL
Weather: no significant weather observed at this time

METAR text: WMKJ 250400Z 17007KT 080V230 9999 FEW017CB SCT018 BKN280 32/27 Q1011
Conditions at: WMKJ (JOHORE BHARU/SEN, MY) observed 0400 UTC 25 June 2019
Temperature: 32.0°C (90°F)
Dewpoint: 27.0°C (81°F) [RH = 75%]
Pressure (altimeter): 29.85 inches Hg (1011.0 mb)
Winds: from the S (170 degrees) at 8 MPH (7 knots; 3.6 m/s)
Visibility: 6 or more miles (10+ km)
Ceiling: 28000 feet AGL
Clouds: few clouds at 1700 feet AGL
scattered clouds at 1800 feet AGL
broken clouds at 28000 feet AGL
Weather: no significant weather observed at this time

METAR text: WMKJ 250300Z 16006KT 120V240 9999 FEW017CB SCT140 BKN280 31/26 Q1011
Conditions at: WMKJ (JOHORE BHARU/SEN, MY) observed 0300 UTC 25 June 2019
Temperature: 31.0°C (88°F)
Dewpoint: 26.0°C (79°F) [RH = 75%]
Pressure (altimeter): 29.85 inches Hg (1011.0 mb)
Winds: from the SSE (160 degrees) at 7 MPH (6 knots; 3.1 m/s)
Visibility: 6 or more miles (10+ km)
Ceiling: 28000 feet AGL
Clouds: few clouds at 1700 feet AGL
scattered clouds at 14000 feet AGL
broken clouds at 28000 feet AGL
Weather: no significant weather observed at this time

METAR text: WMKJ 250200Z 12005KT 080V210 9999 FEW017CB BKN280 30/27 Q1011
Conditions at: WMKJ (JOHORE BHARU/SEN, MY) observed 0200 UTC 25 June 2019
Temperature: 30.0°C (86°F)
Dewpoint: 27.0°C (81°F) [RH = 84%]
Pressure (altimeter): 29.85 inches Hg (1011.0 mb)
Winds: from the ESE (120 degrees) at 6 MPH (5 knots; 2.6 m/s)
Visibility: 6 or more miles (10+ km)
Ceiling: 28000 feet AGL
Clouds: few clouds at 1700 feet AGL
broken clouds at 28000 feet AGL
Weather: no significant weather observed at this time

METAR text: WMKJ 250100Z 00000KT 6000 FEW010 FEW017CB BKN280 26/25 Q1011
Conditions at: WMKJ (JOHORE BHARU/SEN, MY) observed 0100 UTC 25 June 2019
Temperature: 26.0°C (79°F)
Dewpoint: 25.0°C (77°F) [RH = 94%]
Pressure (altimeter): 29.85 inches Hg (1011.0 mb)
Winds: calm
Visibility: 4 miles ( 6 km)
Ceiling: 28000 feet AGL
Clouds: few clouds at 1000 feet AGL
few clouds at 1700 feet AGL
broken clouds at 28000 feet AGL
Weather: no significant weather observed at this time

METAR text: WMKJ 250000Z 00000KT 6000 FEW010 BKN280 25/24 Q1010
Conditions at: WMKJ (JOHORE BHARU/SEN, MY) observed 0000 UTC 25 June 2019
Temperature: 25.0°C (77°F)
Dewpoint: 24.0°C (75°F) [RH = 94%]
Pressure (altimeter): 29.82 inches Hg (1010.0 mb)
Winds: calm
Visibility: 4 miles ( 6 km)
Ceiling: 28000 feet AGL
Clouds: few clouds at 1000 feet AGL
broken clouds at 28000 feet AGL
Weather: no significant weather observed at this time

METAR text: WMKJ 242300Z 00000KT 5000 FEW008 BKN280 24/24 Q1010
Conditions at: WMKJ (JOHORE BHARU/SEN, MY) observed 2300 UTC 24 June 2019
Temperature: 24.0°C (75°F)
Dewpoint: 24.0°C (75°F) [RH = 100%]
Pressure (altimeter): 29.82 inches Hg (1010.0 mb)
Winds: calm
Visibility: 3 miles ( 5 km)
Ceiling: 28000 feet AGL
Clouds: few clouds at 800 feet AGL
broken clouds at 28000 feet AGL
Weather: no significant weather observed at this time

METAR text: WMKJ 242200Z 00000KT 5000 BR FEW008 BKN280 24/24 Q1010
Conditions at: WMKJ (JOHORE BHARU/SEN, MY) observed 2200 UTC 24 June 2019
Temperature: 24.0°C (75°F)
Dewpoint: 24.0°C (75°F) [RH = 100%]
Pressure (altimeter): 29.82 inches Hg (1010.0 mb)
Winds: calm
Visibility: 3 miles ( 5 km)
Ceiling: 28000 feet AGL
Clouds: few clouds at 800 feet AGL
broken clouds at 28000 feet AGL
Weather: BR  (mist)

METAR text: WMKJ 242100Z 00000KT 5000 BR FEW008 BKN280 24/24 Q1010
Conditions at: WMKJ (JOHORE BHARU/SEN, MY) observed 2100 UTC 24 June 2019
Temperature: 24.0°C (75°F)
Dewpoint: 24.0°C (75°F) [RH = 100%]
Pressure (altimeter): 29.82 inches Hg (1010.0 mb)
Winds: calm
Visibility: 3 miles ( 5 km)
Ceiling: 28000 feet AGL
Clouds: few clouds at 800 feet AGL
broken clouds at 28000 feet AGL
Weather: BR  (mist)

METAR text: WMKJ 242000Z 00000KT 5000 BR FEW008 BKN280 25/24 Q1009
Conditions at: WMKJ (JOHORE BHARU/SEN, MY) observed 2000 UTC 24 June 2019
Temperature: 25.0°C (77°F)
Dewpoint: 24.0°C (75°F) [RH = 94%]
Pressure (altimeter): 29.79 inches Hg (1009.0 mb)
Winds: calm
Visibility: 3 miles ( 5 km)
Ceiling: 28000 feet AGL
Clouds: few clouds at 800 feet AGL
broken clouds at 28000 feet AGL
Weather: BR  (mist)

METAR text: WMKJ 241900Z 00000KT 6000 FEW010 BKN280 25/24 Q1009
Conditions at: WMKJ (JOHORE BHARU/SEN, MY) observed 1900 UTC 24 June 2019
Temperature: 25.0°C (77°F)
Dewpoint: 24.0°C (75°F) [RH = 94%]
Pressure (altimeter): 29.79 inches Hg (1009.0 mb)
Winds: calm
Visibility: 4 miles ( 6 km)
Ceiling: 28000 feet AGL
Clouds: few clouds at 1000 feet AGL
broken clouds at 28000 feet AGL
Weather: no significant weather observed at this time

METAR text: WMKJ 241800Z VRB01KT 6000 FEW010 BKN280 25/25 Q1010
Conditions at: WMKJ (JOHORE BHARU/SEN, MY) observed 1800 UTC 24 June 2019
Temperature: 25.0°C (77°F)
Dewpoint: 25.0°C (77°F) [RH = 100%]
Pressure (altimeter): 29.82 inches Hg (1010.0 mb)
Winds: variable direction winds at 1 MPH (1 knots; 0.5 m/s)
Visibility: 4 miles ( 6 km)
Ceiling: 28000 feet AGL
Clouds: few clouds at 1000 feet AGL
broken clouds at 28000 feet AGL
Weather: no significant weather observed at this time

METAR text: WMKJ 241700Z 00000KT 6000 FEW010 BKN280 25/25 Q1010
Conditions at: WMKJ (JOHORE BHARU/SEN, MY) observed 1700 UTC 24 June 2019
Temperature: 25.0°C (77°F)
Dewpoint: 25.0°C (77°F) [RH = 100%]
Pressure (altimeter): 29.82 inches Hg (1010.0 mb)
Winds: calm
Visibility: 4 miles ( 6 km)
Ceiling: 28000 feet AGL
Clouds: few clouds at 1000 feet AGL
broken clouds at 28000 feet AGL
Weather: no significant weather observed at this time

Forecast for: AMD
Text: TAF AMD WMKJ 260233Z 2603/2700 VRB02KT 9999 FEW017CB
Forecast period: 0300 to 1100 UTC 26 June 2019
Forecast type: FROM: standard forecast or significant change
Winds: variable direction winds at 2 MPH (2 knots; 1.0 m/s)
Visibility: 6 or more miles 10+ km)
Ceiling: at least 12,000 feet AGL
Clouds: few clouds at 1700 feet AGL
Weather: no significant weather forecast for this period
Text: TEMPO 2603/2606 21007KT 3000 TSRA FEW017CB SCT018
Forecast period: 0300 to 0600 UTC 26 June 2019
Forecast type: TEMPORARY: The following changes expected for less than half the time period
Winds: from the SSW (210 degrees) at 8 MPH (7 knots; 3.6 m/s)
Visibility: 1.86 miles (2.99 km)
Ceiling: at least 12,000 feet AGL
Clouds: few clouds at 1700 feet AGL
scattered clouds at 1800 feet AGL
Weather: TSRA  (rain associated with thunderstorm(s))
Text: BECMG 2611/2613 VRB02KT 6000 FEW023
Forecast period: 1100 UTC 26 June 2019 to 0000 UTC 27 June 2019
Forecast type: BECOMING: Conditions expected to become as follows by 1300 UTC 26 June 2019
Winds: variable direction winds at 2 MPH (2 knots; 1.0 m/s)
Visibility: 4 miles (6 km)
Ceiling: at least 12,000 feet AGL
Clouds: few clouds at 2300 feet AGL
Weather: no significant weather forecast for this period